sensor_id;sensor_type;location;lat;lon;timestamp;temperature;humidity
60495;DHT22;46342;49.046;11.920;2023-04-24T00:00:16;14.40;57.50
60495;DHT22;46342;49.046;11.920;2023-04-24T00:02:43;14.40;57.60
60495;DHT22;46342;49.046;11.920;2023-04-24T00:05:14;14.40;57.60
60495;DHT22;46342;49.046;11.920;2023-04-24T00:07:41;14.40;57.80
60495;DHT22;46342;49.046;11.920;2023-04-24T00:10:08;14.40;57.70
60495;DHT22;46342;49.046;11.920;2023-04-24T00:12:33;14.40;57.70
60495;DHT22;46342;49.046;11.920;2023-04-24T00:14:59;14.40;57.60
60495;DHT22;46342;49.046;11.920;2023-04-24T00:17:25;14.40;57.70
60495;DHT22;46342;49.046;11.920;2023-04-24T00:19:51;14.40;57.70
60495;DHT22;46342;49.046;11.920;2023-04-24T00:22:26;14.40;57.80
60495;DHT22;46342;49.046;11.920;2023-04-24T00:24:52;14.40;57.80
60495;DHT22;46342;49.046;11.920;2023-04-24T00:27:18;14.30;57.70
60495;DHT22;46342;49.046;11.920;2023-04-24T00:29:43;14.30;57.70
60495;DHT22;46342;49.046;11.920;2023-04-24T00:32:09;14.50;58.50
60495;DHT22;46342;49.046;11.920;2023-04-24T00:34:34;14.30;57.80
60495;DHT22;46342;49.046;11.920;2023-04-24T00:37:03;14.30;57.90
60495;DHT22;46342;49.046;11.920;2023-04-24T00:39:29;14.30;58.30
60495;DHT22;46342;49.046;11.920;2023-04-24T00:41:54;14.30;57.90
60495;DHT22;46342;49.046;11.920;2023-04-24T00:44:20;14.30;58.00
60495;DHT22;46342;49.046;11.920;2023-04-24T00:46:46;14.30;58.10
60495;DHT22;46342;49.046;11.920;2023-04-24T00:49:13;14.30;58.10
60495;DHT22;46342;49.046;11.920;2023-04-24T00:51:39;14.30;58.90
60495;DHT22;46342;49.046;11.920;2023-04-24T00:54:06;14.40;58.30
60495;DHT22;46342;49.046;11.920;2023-04-24T00:56:31;14.30;58.30
60495;DHT22;46342;49.046;11.920;2023-04-24T00:58:58;14.30;58.30
60495;DHT22;46342;49.046;11.920;2023-04-24T01:01:24;14.30;58.30
60495;DHT22;46342;49.046;11.920;2023-04-24T01:03:51;14.30;58.40
60495;DHT22;46342;49.046;11.920;2023-04-24T01:06:17;14.40;58.60
60495;DHT22;46342;49.046;11.920;2023-04-24T01:08:43;14.30;58.50
60495;DHT22;46342;49.046;11.920;2023-04-24T01:11:10;14.30;58.50
60495;DHT22;46342;49.046;11.920;2023-04-24T01:13:36;14.30;58.40
60495;DHT22;46342;49.046;11.920;2023-04-24T01:16:01;14.20;58.40
60495;DHT22;46342;49.046;11.920;2023-04-24T01:18:27;14.30;58.50
60495;DHT22;46342;49.046;11.920;2023-04-24T01:20:57;14.30;58.50
60495;DHT22;46342;49.046;11.920;2023-04-24T01:23:23;14.20;58.50
60495;DHT22;46342;49.046;11.920;2023-04-24T01:25:49;14.20;58.40
60495;DHT22;46342;49.046;11.920;2023-04-24T01:28:15;14.20;58.60
60495;DHT22;46342;49.046;11.920;2023-04-24T01:30:42;14.20;58.60
60495;DHT22;46342;49.046;11.920;2023-04-24T01:33:07;14.20;58.70
60495;DHT22;46342;49.046;11.920;2023-04-24T01:35:33;14.20;58.70
60495;DHT22;46342;49.046;11.920;2023-04-24T01:37:59;14.20;58.70
60495;DHT22;46342;49.046;11.920;2023-04-24T01:40:25;14.20;58.80
60495;DHT22;46342;49.046;11.920;2023-04-24T01:42:51;14.20;58.80
60495;DHT22;46342;49.046;11.920;2023-04-24T01:45:17;14.20;58.80
60495;DHT22;46342;49.046;11.920;2023-04-24T01:47:43;14.20;58.80
60495;DHT22;46342;49.046;11.920;2023-04-24T01:50:09;14.10;58.80
60495;DHT22;46342;49.046;11.920;2023-04-24T01:52:35;14.20;59.00
60495;DHT22;46342;49.046;11.920;2023-04-24T01:55:02;14.10;58.90
60495;DHT22;46342;49.046;11.920;2023-04-24T01:57:28;14.10;58.90
60495;DHT22;46342;49.046;11.920;2023-04-24T01:59:55;14.10;59.00
60495;DHT22;46342;49.046;11.920;2023-04-24T02:02:21;14.10;58.90
60495;DHT22;46342;49.046;11.920;2023-04-24T02:04:51;14.10;58.90
60495;DHT22;46342;49.046;11.920;2023-04-24T02:07:17;14.10;59.00
60495;DHT22;46342;49.046;11.920;2023-04-24T02:09:42;14.10;59.00
60495;DHT22;46342;49.046;11.920;2023-04-24T02:12:08;14.10;59.00
60495;DHT22;46342;49.046;11.920;2023-04-24T02:14:33;14.10;59.10
60495;DHT22;46342;49.046;11.920;2023-04-24T02:16:59;14.10;59.10
60495;DHT22;46342;49.046;11.920;2023-04-24T02:19:26;14.10;59.20
60495;DHT22;46342;49.046;11.920;2023-04-24T02:21:51;14.00;59.20
60495;DHT22;46342;49.046;11.920;2023-04-24T02:24:17;14.10;59.20
60495;DHT22;46342;49.046;11.920;2023-04-24T02:26:43;14.10;59.30
60495;DHT22;46342;49.046;11.920;2023-04-24T02:29:08;14.10;59.20
60495;DHT22;46342;49.046;11.920;2023-04-24T02:31:34;14.10;59.30
60495;DHT22;46342;49.046;11.920;2023-04-24T02:33:59;14.10;59.30
60495;DHT22;46342;49.046;11.920;2023-04-24T02:36:25;14.00;59.30
60495;DHT22;46342;49.046;11.920;2023-04-24T02:38:50;14.00;59.30
60495;DHT22;46342;49.046;11.920;2023-04-24T02:41:16;14.00;59.30
60495;DHT22;46342;49.046;11.920;2023-04-24T02:43:41;14.00;59.40
60495;DHT22;46342;49.046;11.920;2023-04-24T02:46:07;14.00;59.40
60495;DHT22;46342;49.046;11.920;2023-04-24T02:48:33;14.00;59.40
60495;DHT22;46342;49.046;11.920;2023-04-24T02:50:58;14.00;59.50
60495;DHT22;46342;49.046;11.920;2023-04-24T02:53:24;14.00;59.40
60495;DHT22;46342;49.046;11.920;2023-04-24T02:55:49;14.00;59.40
60495;DHT22;46342;49.046;11.920;2023-04-24T02:58:15;14.00;60.10
60495;DHT22;46342;49.046;11.920;2023-04-24T03:00:41;14.00;59.40
60495;DHT22;46342;49.046;11.920;2023-04-24T03:03:06;14.00;59.40
60495;DHT22;46342;49.046;11.920;2023-04-24T03:05:32;14.00;59.40
60495;DHT22;46342;49.046;11.920;2023-04-24T03:07:58;14.00;59.40
60495;DHT22;46342;49.046;11.920;2023-04-24T03:10:23;13.90;59.30
60495;DHT22;46342;49.046;11.920;2023-04-24T03:12:49;13.90;59.40
60495;DHT22;46342;49.046;11.920;2023-04-24T03:15:15;13.90;59.40
60495;DHT22;46342;49.046;11.920;2023-04-24T03:17:41;13.90;59.40
60495;DHT22;46342;49.046;11.920;2023-04-24T03:20:07;13.90;59.50
60495;DHT22;46342;49.046;11.920;2023-04-24T03:22:36;13.90;59.60
60495;DHT22;46342;49.046;11.920;2023-04-24T03:25:01;13.90;59.50
60495;DHT22;46342;49.046;11.920;2023-04-24T03:27:27;13.80;60.10
60495;DHT22;46342;49.046;11.920;2023-04-24T03:29:53;13.80;59.50
60495;DHT22;46342;49.046;11.920;2023-04-24T03:32:21;13.80;59.50
60495;DHT22;46342;49.046;11.920;2023-04-24T03:34:48;13.80;59.60
60495;DHT22;46342;49.046;11.920;2023-04-24T03:37:14;13.80;59.60
60495;DHT22;46342;49.046;11.920;2023-04-24T03:39:40;13.80;59.90
60495;DHT22;46342;49.046;11.920;2023-04-24T03:42:05;13.80;59.60
60495;DHT22;46342;49.046;11.920;2023-04-24T03:44:31;13.80;59.60
60495;DHT22;46342;49.046;11.920;2023-04-24T03:46:58;13.70;59.50
60495;DHT22;46342;49.046;11.920;2023-04-24T03:49:23;13.80;59.90
60495;DHT22;46342;49.046;11.920;2023-04-24T03:51:49;13.70;59.70
60495;DHT22;46342;49.046;11.920;2023-04-24T03:54:14;13.70;59.70
60495;DHT22;46342;49.046;11.920;2023-04-24T03:56:40;13.70;59.70
60495;DHT22;46342;49.046;11.920;2023-04-24T03:59:05;13.70;59.80
60495;DHT22;46342;49.046;11.920;2023-04-24T04:01:31;13.70;59.80
60495;DHT22;46342;49.046;11.920;2023-04-24T04:03:57;13.70;59.80
60495;DHT22;46342;49.046;11.920;2023-04-24T04:06:22;13.60;59.80
60495;DHT22;46342;49.046;11.920;2023-04-24T04:08:48;13.60;60.10
60495;DHT22;46342;49.046;11.920;2023-04-24T04:11:13;13.60;59.90
60495;DHT22;46342;49.046;11.920;2023-04-24T04:13:39;13.60;60.00
60495;DHT22;46342;49.046;11.920;2023-04-24T04:16:05;13.60;60.00
60495;DHT22;46342;49.046;11.920;2023-04-24T04:18:30;13.60;60.00
60495;DHT22;46342;49.046;11.920;2023-04-24T04:20:56;13.60;60.00
60495;DHT22;46342;49.046;11.920;2023-04-24T04:23:22;13.60;60.10
60495;DHT22;46342;49.046;11.920;2023-04-24T04:25:48;13.60;60.20
60495;DHT22;46342;49.046;11.920;2023-04-24T04:28:15;13.60;60.10
60495;DHT22;46342;49.046;11.920;2023-04-24T04:30:40;13.60;60.30
60495;DHT22;46342;49.046;11.920;2023-04-24T04:33:06;13.60;60.30
60495;DHT22;46342;49.046;11.920;2023-04-24T04:35:33;13.60;60.40
60495;DHT22;46342;49.046;11.920;2023-04-24T04:37:59;13.60;60.30
60495;DHT22;46342;49.046;11.920;2023-04-24T04:40:24;13.50;60.30
60495;DHT22;46342;49.046;11.920;2023-04-24T04:42:50;13.50;60.30
60495;DHT22;46342;49.046;11.920;2023-04-24T04:45:18;13.60;60.50
60495;DHT22;46342;49.046;11.920;2023-04-24T04:47:44;13.60;62.10
60495;DHT22;46342;49.046;11.920;2023-04-24T04:50:10;13.50;60.10
60495;DHT22;46342;49.046;11.920;2023-04-24T04:52:35;13.50;60.30
60495;DHT22;46342;49.046;11.920;2023-04-24T04:55:01;13.50;60.30
60495;DHT22;46342;49.046;11.920;2023-04-24T04:57:27;13.50;60.50
60495;DHT22;46342;49.046;11.920;2023-04-24T04:59:53;13.50;60.50
60495;DHT22;46342;49.046;11.920;2023-04-24T05:02:18;13.50;60.60
60495;DHT22;46342;49.046;11.920;2023-04-24T05:04:44;13.50;60.70
60495;DHT22;46342;49.046;11.920;2023-04-24T05:07:10;13.50;60.70
60495;DHT22;46342;49.046;11.920;2023-04-24T05:09:36;13.50;60.70
60495;DHT22;46342;49.046;11.920;2023-04-24T05:12:02;13.50;60.80
60495;DHT22;46342;49.046;11.920;2023-04-24T05:14:27;13.50;60.90
60495;DHT22;46342;49.046;11.920;2023-04-24T05:16:53;13.50;60.90
60495;DHT22;46342;49.046;11.920;2023-04-24T05:19:18;13.50;60.90
60495;DHT22;46342;49.046;11.920;2023-04-24T05:21:44;13.50;61.00
60495;DHT22;46342;49.046;11.920;2023-04-24T05:24:09;13.50;61.00
60495;DHT22;46342;49.046;11.920;2023-04-24T05:26:35;13.60;61.10
60495;DHT22;46342;49.046;11.920;2023-04-24T05:29:01;13.60;61.10
60495;DHT22;46342;49.046;11.920;2023-04-24T05:31:27;13.50;61.10
60495;DHT22;46342;49.046;11.920;2023-04-24T05:33:53;13.60;61.30
60495;DHT22;46342;49.046;11.920;2023-04-24T05:36:18;13.50;61.30
60495;DHT22;46342;49.046;11.920;2023-04-24T05:38:44;13.50;61.30
60495;DHT22;46342;49.046;11.920;2023-04-24T05:41:09;13.60;61.50
60495;DHT22;46342;49.046;11.920;2023-04-24T05:43:35;13.60;61.50
60495;DHT22;46342;49.046;11.920;2023-04-24T05:46:00;13.60;61.40
60495;DHT22;46342;49.046;11.920;2023-04-24T05:48:26;13.60;61.50
60495;DHT22;46342;49.046;11.920;2023-04-24T05:50:52;13.60;61.50
60495;DHT22;46342;49.046;11.920;2023-04-24T05:53:18;13.60;61.50
60495;DHT22;46342;49.046;11.920;2023-04-24T05:55:44;13.60;62.60
60495;DHT22;46342;49.046;11.920;2023-04-24T05:58:10;13.60;61.60
60495;DHT22;46342;49.046;11.920;2023-04-24T06:00:35;13.70;61.80
60495;DHT22;46342;49.046;11.920;2023-04-24T06:03:01;13.70;61.80
60495;DHT22;46342;49.046;11.920;2023-04-24T06:05:29;13.70;61.80
60495;DHT22;46342;49.046;11.920;2023-04-24T06:07:55;13.70;62.00
60495;DHT22;46342;49.046;11.920;2023-04-24T06:10:21;13.70;61.80
60495;DHT22;46342;49.046;11.920;2023-04-24T06:12:46;13.70;62.00
60495;DHT22;46342;49.046;11.920;2023-04-24T06:15:12;13.80;62.00
60495;DHT22;46342;49.046;11.920;2023-04-24T06:17:38;13.80;61.90
60495;DHT22;46342;49.046;11.920;2023-04-24T06:20:04;13.80;62.00
60495;DHT22;46342;49.046;11.920;2023-04-24T06:22:31;13.80;62.00
60495;DHT22;46342;49.046;11.920;2023-04-24T06:24:56;13.80;61.80
60495;DHT22;46342;49.046;11.920;2023-04-24T06:27:22;13.80;61.80
60495;DHT22;46342;49.046;11.920;2023-04-24T06:29:47;13.80;61.70
60495;DHT22;46342;49.046;11.920;2023-04-24T06:32:21;13.80;61.80
60495;DHT22;46342;49.046;11.920;2023-04-24T06:34:46;13.80;62.00
60495;DHT22;46342;49.046;11.920;2023-04-24T06:37:12;13.80;61.80
60495;DHT22;46342;49.046;11.920;2023-04-24T06:39:37;13.90;62.00
60495;DHT22;46342;49.046;11.920;2023-04-24T06:42:03;13.90;62.10
60495;DHT22;46342;49.046;11.920;2023-04-24T06:44:28;13.90;62.10
60495;DHT22;46342;49.046;11.920;2023-04-24T06:46:54;14.00;62.30
60495;DHT22;46342;49.046;11.920;2023-04-24T06:49:19;14.00;62.40
60495;DHT22;46342;49.046;11.920;2023-04-24T06:51:45;14.00;62.40
60495;DHT22;46342;49.046;11.920;2023-04-24T06:54:11;14.00;62.40
60495;DHT22;46342;49.046;11.920;2023-04-24T06:56:36;14.10;62.50
60495;DHT22;46342;49.046;11.920;2023-04-24T06:59:02;14.10;62.50
60495;DHT22;46342;49.046;11.920;2023-04-24T07:01:28;14.10;62.50
60495;DHT22;46342;49.046;11.920;2023-04-24T07:03:53;14.10;62.50
60495;DHT22;46342;49.046;11.920;2023-04-24T07:06:19;14.20;62.60
60495;DHT22;46342;49.046;11.920;2023-04-24T07:08:48;14.30;63.60
60495;DHT22;46342;49.046;11.920;2023-04-24T07:11:13;14.30;62.80
60495;DHT22;46342;49.046;11.920;2023-04-24T07:13:39;14.30;62.70
60495;DHT22;46342;49.046;11.920;2023-04-24T07:16:07;14.40;62.80
60495;DHT22;46342;49.046;11.920;2023-04-24T07:18:33;14.40;62.80
60495;DHT22;46342;49.046;11.920;2023-04-24T07:20:59;14.50;62.90
60495;DHT22;46342;49.046;11.920;2023-04-24T07:23:24;14.50;63.00
60495;DHT22;46342;49.046;11.920;2023-04-24T07:25:50;14.60;63.20
60495;DHT22;46342;49.046;11.920;2023-04-24T07:28:15;14.60;64.00
60495;DHT22;46342;49.046;11.920;2023-04-24T07:30:43;14.70;63.10
60495;DHT22;46342;49.046;11.920;2023-04-24T07:33:08;14.80;64.00
60495;DHT22;46342;49.046;11.920;2023-04-24T07:35:36;14.80;62.80
60495;DHT22;46342;49.046;11.920;2023-04-24T07:38:02;14.80;62.60
60495;DHT22;46342;49.046;11.920;2023-04-24T07:40:27;14.90;62.50
60495;DHT22;46342;49.046;11.920;2023-04-24T07:42:53;14.90;62.40
60495;DHT22;46342;49.046;11.920;2023-04-24T07:45:18;14.90;62.50
60495;DHT22;46342;49.046;11.920;2023-04-24T07:47:44;15.00;62.60
60495;DHT22;46342;49.046;11.920;2023-04-24T07:50:11;15.00;62.90
60495;DHT22;46342;49.046;11.920;2023-04-24T07:52:38;15.10;63.00
60495;DHT22;46342;49.046;11.920;2023-04-24T07:55:04;15.20;63.20
60495;DHT22;46342;49.046;11.920;2023-04-24T07:57:30;15.20;63.00
60495;DHT22;46342;49.046;11.920;2023-04-24T07:59:55;15.30;62.90
60495;DHT22;46342;49.046;11.920;2023-04-24T08:02:21;15.30;62.80
60495;DHT22;46342;49.046;11.920;2023-04-24T08:04:54;15.40;62.70
60495;DHT22;46342;49.046;11.920;2023-04-24T08:07:20;15.40;62.50
60495;DHT22;46342;49.046;11.920;2023-04-24T08:09:45;15.50;62.50
60495;DHT22;46342;49.046;11.920;2023-04-24T08:12:11;15.60;62.70
60495;DHT22;46342;49.046;11.920;2023-04-24T08:14:36;15.70;62.50
60495;DHT22;46342;49.046;11.920;2023-04-24T08:17:02;15.70;62.00
60495;DHT22;46342;49.046;11.920;2023-04-24T08:19:30;15.70;61.80
60495;DHT22;46342;49.046;11.920;2023-04-24T08:21:56;15.70;60.90
60495;DHT22;46342;49.046;11.920;2023-04-24T08:24:22;15.70;60.00
60495;DHT22;46342;49.046;11.920;2023-04-24T08:26:48;15.70;59.70
60495;DHT22;46342;49.046;11.920;2023-04-24T08:29:16;15.60;59.40
60495;DHT22;46342;49.046;11.920;2023-04-24T08:31:42;15.40;59.20
60495;DHT22;46342;49.046;11.920;2023-04-24T08:34:09;15.40;59.10
60495;DHT22;46342;49.046;11.920;2023-04-24T08:36:35;15.30;59.00
60495;DHT22;46342;49.046;11.920;2023-04-24T08:39:01;15.20;59.00
60495;DHT22;46342;49.046;11.920;2023-04-24T08:41:27;15.20;59.20
60495;DHT22;46342;49.046;11.920;2023-04-24T08:43:53;15.20;59.50
60495;DHT22;46342;49.046;11.920;2023-04-24T08:46:20;15.10;59.60
60495;DHT22;46342;49.046;11.920;2023-04-24T08:48:48;15.10;59.70
60495;DHT22;46342;49.046;11.920;2023-04-24T08:51:14;15.00;59.80
60495;DHT22;46342;49.046;11.920;2023-04-24T08:53:40;15.00;59.80
60495;DHT22;46342;49.046;11.920;2023-04-24T08:56:06;15.00;59.80
60495;DHT22;46342;49.046;11.920;2023-04-24T08:58:33;15.00;60.40
60495;DHT22;46342;49.046;11.920;2023-04-24T09:00:58;14.90;60.20
60495;DHT22;46342;49.046;11.920;2023-04-24T09:03:24;15.00;59.50
60495;DHT22;46342;49.046;11.920;2023-04-24T09:05:52;15.00;59.40
60495;DHT22;46342;49.046;11.920;2023-04-24T09:08:19;15.00;59.20
60495;DHT22;46342;49.046;11.920;2023-04-24T09:10:45;14.90;59.10
60495;DHT22;46342;49.046;11.920;2023-04-24T09:13:11;14.90;59.20
60495;DHT22;46342;49.046;11.920;2023-04-24T09:15:37;14.90;59.80
60495;DHT22;46342;49.046;11.920;2023-04-24T09:18:04;14.90;59.30
60495;DHT22;46342;49.046;11.920;2023-04-24T09:20:30;15.00;59.30
60495;DHT22;46342;49.046;11.920;2023-04-24T09:22:59;15.00;59.20
60495;DHT22;46342;49.046;11.920;2023-04-24T09:25:31;15.00;59.00
60495;DHT22;46342;49.046;11.920;2023-04-24T09:28:01;15.00;58.80
60495;DHT22;46342;49.046;11.920;2023-04-24T09:30:28;15.00;59.00
60495;DHT22;46342;49.046;11.920;2023-04-24T09:33:18;15.00;59.20
60495;DHT22;46342;49.046;11.920;2023-04-24T09:35:52;15.10;59.20
60495;DHT22;46342;49.046;11.920;2023-04-24T09:38:19;15.20;59.30
60495;DHT22;46342;49.046;11.920;2023-04-24T09:40:45;15.20;59.30
60495;DHT22;46342;49.046;11.920;2023-04-24T09:43:11;15.30;59.30
60495;DHT22;46342;49.046;11.920;2023-04-24T09:45:38;15.30;59.10
60495;DHT22;46342;49.046;11.920;2023-04-24T09:48:05;15.40;58.90
60495;DHT22;46342;49.046;11.920;2023-04-24T09:50:31;15.40;58.70
60495;DHT22;46342;49.046;11.920;2023-04-24T09:52:59;15.50;58.50
60495;DHT22;46342;49.046;11.920;2023-04-24T09:55:27;15.40;58.20
60495;DHT22;46342;49.046;11.920;2023-04-24T10:00:26;15.60;58.10
60495;DHT22;46342;49.046;11.920;2023-04-24T10:02:59;15.50;57.90
60495;DHT22;46342;49.046;11.920;2023-04-24T10:05:32;15.50;57.80
60495;DHT22;46342;49.046;11.920;2023-04-24T10:08:08;15.50;57.40
60495;DHT22;46342;49.046;11.920;2023-04-24T10:10:37;15.50;57.20
60495;DHT22;46342;49.046;11.920;2023-04-24T10:13:04;15.50;57.50
60495;DHT22;46342;49.046;11.920;2023-04-24T10:15:30;15.50;57.30
60495;DHT22;46342;49.046;11.920;2023-04-24T10:17:58;15.50;57.20
60495;DHT22;46342;49.046;11.920;2023-04-24T10:20:25;15.60;56.70
60495;DHT22;46342;49.046;11.920;2023-04-24T10:22:53;15.50;56.60
60495;DHT22;46342;49.046;11.920;2023-04-24T10:25:23;15.50;56.70
60495;DHT22;46342;49.046;11.920;2023-04-24T10:27:51;15.40;56.60
60495;DHT22;46342;49.046;11.920;2023-04-24T10:30:18;15.40;56.50
60495;DHT22;46342;49.046;11.920;2023-04-24T10:32:44;15.50;56.60
60495;DHT22;46342;49.046;11.920;2023-04-24T10:35:12;15.40;56.50
60495;DHT22;46342;49.046;11.920;2023-04-24T10:37:41;15.40;56.10
60495;DHT22;46342;49.046;11.920;2023-04-24T10:40:08;15.50;56.20
60495;DHT22;46342;49.046;11.920;2023-04-24T10:42:35;15.50;56.60
60495;DHT22;46342;49.046;11.920;2023-04-24T10:45:06;15.60;56.90
60495;DHT22;46342;49.046;11.920;2023-04-24T10:47:40;15.60;56.80
60495;DHT22;46342;49.046;11.920;2023-04-24T10:50:10;15.70;56.70
60495;DHT22;46342;49.046;11.920;2023-04-24T10:52:48;15.80;56.80
60495;DHT22;46342;49.046;11.920;2023-04-24T10:55:18;15.90;56.20
60495;DHT22;46342;49.046;11.920;2023-04-24T10:58:03;16.00;56.80
60495;DHT22;46342;49.046;11.920;2023-04-24T11:00:29;16.10;56.40
60495;DHT22;46342;49.046;11.920;2023-04-24T11:02:55;16.10;56.30
60495;DHT22;46342;49.046;11.920;2023-04-24T11:05:22;16.10;55.70
60495;DHT22;46342;49.046;11.920;2023-04-24T11:08:14;16.20;55.30
60495;DHT22;46342;49.046;11.920;2023-04-24T11:10:45;16.20;53.40
60495;DHT22;46342;49.046;11.920;2023-04-24T11:13:15;16.20;54.20
60495;DHT22;46342;49.046;11.920;2023-04-24T11:15:42;16.10;54.50
60495;DHT22;46342;49.046;11.920;2023-04-24T11:18:13;16.10;54.60
60495;DHT22;46342;49.046;11.920;2023-04-24T11:20:43;16.10;54.30
60495;DHT22;46342;49.046;11.920;2023-04-24T11:23:08;16.10;54.00
60495;DHT22;46342;49.046;11.920;2023-04-24T11:25:35;16.00;54.00
60495;DHT22;46342;49.046;11.920;2023-04-24T11:28:05;15.80;53.40
60495;DHT22;46342;49.046;11.920;2023-04-24T11:30:32;15.80;53.50
60495;DHT22;46342;49.046;11.920;2023-04-24T11:33:05;15.70;54.00
60495;DHT22;46342;49.046;11.920;2023-04-24T11:35:35;15.60;53.90
60495;DHT22;46342;49.046;11.920;2023-04-24T11:38:02;15.50;54.00
60495;DHT22;46342;49.046;11.920;2023-04-24T11:40:28;15.50;54.50
60495;DHT22;46342;49.046;11.920;2023-04-24T11:42:54;15.50;54.60
60495;DHT22;46342;49.046;11.920;2023-04-24T11:45:28;15.50;54.60
60495;DHT22;46342;49.046;11.920;2023-04-24T11:47:53;15.50;54.50
60495;DHT22;46342;49.046;11.920;2023-04-24T11:50:22;15.50;54.70
60495;DHT22;46342;49.046;11.920;2023-04-24T11:52:49;15.50;54.80
60495;DHT22;46342;49.046;11.920;2023-04-24T11:57:46;15.60;55.40
60495;DHT22;46342;49.046;11.920;2023-04-24T12:02:42;15.80;55.30
60495;DHT22;46342;49.046;11.920;2023-04-24T12:05:07;15.90;55.60
60495;DHT22;46342;49.046;11.920;2023-04-24T12:07:41;16.00;55.50
60495;DHT22;46342;49.046;11.920;2023-04-24T12:10:09;16.10;54.70
60495;DHT22;46342;49.046;11.920;2023-04-24T12:12:35;16.20;55.10
60495;DHT22;46342;49.046;11.920;2023-04-24T12:15:05;16.30;55.20
60495;DHT22;46342;49.046;11.920;2023-04-24T12:17:32;16.30;55.10
60495;DHT22;46342;49.046;11.920;2023-04-24T12:20:06;16.40;55.00
60495;DHT22;46342;49.046;11.920;2023-04-24T12:22:48;16.50;54.30
60495;DHT22;46342;49.046;11.920;2023-04-24T12:25:16;16.60;54.30
60495;DHT22;46342;49.046;11.920;2023-04-24T12:27:44;16.70;54.80
60495;DHT22;46342;49.046;11.920;2023-04-24T12:30:12;16.80;54.80
60495;DHT22;46342;49.046;11.920;2023-04-24T12:32:49;16.80;54.70
60495;DHT22;46342;49.046;11.920;2023-04-24T12:35:23;17.00;53.70
60495;DHT22;46342;49.046;11.920;2023-04-24T12:37:49;17.10;53.80
60495;DHT22;46342;49.046;11.920;2023-04-24T12:40:16;17.10;54.40
60495;DHT22;46342;49.046;11.920;2023-04-24T12:42:47;17.20;54.10
60495;DHT22;46342;49.046;11.920;2023-04-24T12:45:13;17.30;53.80
60495;DHT22;46342;49.046;11.920;2023-04-24T12:47:40;17.30;53.10
60495;DHT22;46342;49.046;11.920;2023-04-24T12:50:08;17.30;52.30
60495;DHT22;46342;49.046;11.920;2023-04-24T12:52:34;17.40;51.60
60495;DHT22;46342;49.046;11.920;2023-04-24T12:55:00;17.30;51.30
60495;DHT22;46342;49.046;11.920;2023-04-24T12:57:29;17.20;50.80
60495;DHT22;46342;49.046;11.920;2023-04-24T12:59:57;17.20;50.00
60495;DHT22;46342;49.046;11.920;2023-04-24T13:02:24;17.00;50.20
60495;DHT22;46342;49.046;11.920;2023-04-24T13:04:50;16.90;50.00
60495;DHT22;46342;49.046;11.920;2023-04-24T13:07:16;16.80;50.10
60495;DHT22;46342;49.046;11.920;2023-04-24T13:09:43;16.70;50.30
60495;DHT22;46342;49.046;11.920;2023-04-24T13:12:10;16.60;50.60
60495;DHT22;46342;49.046;11.920;2023-04-24T13:14:36;16.60;50.60
60495;DHT22;46342;49.046;11.920;2023-04-24T13:17:02;16.50;50.30
60495;DHT22;46342;49.046;11.920;2023-04-24T13:19:28;16.50;50.70
60495;DHT22;46342;49.046;11.920;2023-04-24T13:21:55;16.50;50.60
60495;DHT22;46342;49.046;11.920;2023-04-24T13:24:22;16.50;50.70
60495;DHT22;46342;49.046;11.920;2023-04-24T13:26:52;16.40;50.60
60495;DHT22;46342;49.046;11.920;2023-04-24T13:29:17;16.40;50.30
60495;DHT22;46342;49.046;11.920;2023-04-24T13:31:43;16.40;50.20
60495;DHT22;46342;49.046;11.920;2023-04-24T13:34:09;16.40;50.20
60495;DHT22;46342;49.046;11.920;2023-04-24T13:36:35;16.40;50.40
60495;DHT22;46342;49.046;11.920;2023-04-24T13:39:02;16.50;50.60
60495;DHT22;46342;49.046;11.920;2023-04-24T13:41:29;16.50;50.30
60495;DHT22;46342;49.046;11.920;2023-04-24T13:43:55;16.60;50.30
60495;DHT22;46342;49.046;11.920;2023-04-24T13:46:21;16.50;49.70
60495;DHT22;46342;49.046;11.920;2023-04-24T13:48:46;16.50;49.30
60495;DHT22;46342;49.046;11.920;2023-04-24T13:51:12;16.50;49.30
60495;DHT22;46342;49.046;11.920;2023-04-24T13:53:37;16.50;49.40
60495;DHT22;46342;49.046;11.920;2023-04-24T13:56:04;16.40;49.80
60495;DHT22;46342;49.046;11.920;2023-04-24T13:58:31;16.40;49.40
60495;DHT22;46342;49.046;11.920;2023-04-24T14:00:57;16.30;49.30
60495;DHT22;46342;49.046;11.920;2023-04-24T14:03:23;16.30;49.40
60495;DHT22;46342;49.046;11.920;2023-04-24T14:05:48;16.20;49.50
60495;DHT22;46342;49.046;11.920;2023-04-24T14:08:14;16.20;49.60
60495;DHT22;46342;49.046;11.920;2023-04-24T14:10:40;16.10;49.70
60495;DHT22;46342;49.046;11.920;2023-04-24T14:13:05;16.10;50.00
60495;DHT22;46342;49.046;11.920;2023-04-24T14:15:31;16.00;50.10
60495;DHT22;46342;49.046;11.920;2023-04-24T14:17:57;15.90;50.10
60495;DHT22;46342;49.046;11.920;2023-04-24T14:20:23;15.80;50.00
60495;DHT22;46342;49.046;11.920;2023-04-24T14:22:48;15.80;50.10
60495;DHT22;46342;49.046;11.920;2023-04-24T14:25:14;15.70;50.10
60495;DHT22;46342;49.046;11.920;2023-04-24T14:27:40;15.60;49.90
60495;DHT22;46342;49.046;11.920;2023-04-24T14:30:06;15.60;50.00
60495;DHT22;46342;49.046;11.920;2023-04-24T14:32:32;15.40;49.60
60495;DHT22;46342;49.046;11.920;2023-04-24T14:34:58;15.40;49.70
60495;DHT22;46342;49.046;11.920;2023-04-24T14:37:23;15.30;50.30
60495;DHT22;46342;49.046;11.920;2023-04-24T14:39:49;15.20;49.70
60495;DHT22;46342;49.046;11.920;2023-04-24T14:42:14;15.20;49.80
60495;DHT22;46342;49.046;11.920;2023-04-24T14:44:42;15.10;49.50
60495;DHT22;46342;49.046;11.920;2023-04-24T14:47:07;15.10;49.50
60495;DHT22;46342;49.046;11.920;2023-04-24T14:49:33;15.00;49.50
60495;DHT22;46342;49.046;11.920;2023-04-24T14:51:58;15.00;49.50
60495;DHT22;46342;49.046;11.920;2023-04-24T14:54:24;15.00;49.60
60495;DHT22;46342;49.046;11.920;2023-04-24T14:56:50;14.90;49.50
60495;DHT22;46342;49.046;11.920;2023-04-24T14:59:16;14.90;49.60
60495;DHT22;46342;49.046;11.920;2023-04-24T15:01:42;14.90;49.60
60495;DHT22;46342;49.046;11.920;2023-04-24T15:04:07;14.90;49.60
60495;DHT22;46342;49.046;11.920;2023-04-24T15:06:33;14.80;49.60
60495;DHT22;46342;49.046;11.920;2023-04-24T15:08:58;14.90;49.60
60495;DHT22;46342;49.046;11.920;2023-04-24T15:11:24;14.90;49.60
60495;DHT22;46342;49.046;11.920;2023-04-24T15:13:50;14.80;49.50
60495;DHT22;46342;49.046;11.920;2023-04-24T15:16:15;14.80;49.50
60495;DHT22;46342;49.046;11.920;2023-04-24T15:18:41;14.80;49.60